Terminal Aerodrome Forecast
Issued by NWS

Home | Current Version | Previous Version | Text Only | Print | Product List | Glossary On
Versions: 1 2 3 4 5 6 7 8 9 10 11 12 13 14
000
FTUS43 KDLH 181300 AAA
TAFHYR
TAF AMD
KHYR 181308Z 1813/1912 07011G16KT P6SM SKC
     FM190200 13010KT P6SM BKN150
     FM190800 09007KT P6SM SCT015 BKN025=

USA.gov is the U.S. government's official web portal to all federal, state and local government web resources and services.